Time,TemperatureF,DewpointF,PressureIn,WindDirection,WindDirectionDegrees,WindSpeedMPH,WindSpeedGustMPH,Humidity,HourlyPrecipIn,Conditions,Clouds,dailyrainin,SoftwareType,DateUTC
2013-02-28 00:04:00,29.9,19.4,29.25,North,0,0.0,0.0,65,0.00,,,0.00,WUHU216HW,2013-02-28 09:04:00,
2013-02-28 00:09:00,29.9,19.1,29.25,North,0,0.0,0.0,64,0.00,,,0.00,WUHU216HW,2013-02-28 09:09:00,
2013-02-28 00:14:00,29.9,19.1,29.25,North,0,0.0,0.0,64,0.00,,,0.00,WUHU216HW,2013-02-28 09:14:00,
2013-02-28 00:19:00,29.9,19.1,29.25,North,0,0.0,0.0,64,0.00,,,0.00,WUHU216HW,2013-02-28 09:19:00,
2013-02-28 00:24:00,29.9,19.1,29.24,North,0,0.0,0.0,64,0.00,,,0.00,WUHU216HW,2013-02-28 09:24:00,
2013-02-28 00:29:00,29.7,18.6,29.24,North,0,0.0,0.0,63,0.00,,,0.00,WUHU216HW,2013-02-28 09:29:00,
2013-02-28 00:34:00,29.5,18.5,29.24,North,0,0.0,0.0,63,0.00,,,0.00,WUHU216HW,2013-02-28 09:34:00,
2013-02-28 00:39:00,29.5,18.5,29.24,North,0,0.0,0.0,63,0.00,,,0.00,WUHU216HW,2013-02-28 09:39:00,
2013-02-28 00:44:00,29.3,18.3,29.24,North,0,0.0,0.0,63,0.00,,,0.00,WUHU216HW,2013-02-28 09:44:00,
2013-02-28 00:49:00,29.2,17.7,29.24,North,0,0.0,0.0,62,0.00,,,0.00,WUHU216HW,2013-02-28 09:49:00,
2013-02-28 00:54:00,29.2,17.7,29.24,North,0,0.0,0.0,62,0.00,,,0.00,WUHU216HW,2013-02-28 09:54:00,
2013-02-28 00:59:00,29.0,17.6,29.24,North,0,0.0,0.0,62,0.00,,,0.00,WUHU216HW,2013-02-28 09:59:00,
2013-02-28 01:04:00,29.2,17.7,29.24,North,0,0.0,0.0,62,0.00,,,0.00,WUHU216HW,2013-02-28 10:04:00,
2013-02-28 01:09:00,29.3,18.3,29.24,North,0,0.0,0.0,63,0.00,,,0.00,WUHU216HW,2013-02-28 10:09:00,
2013-02-28 01:14:00,29.3,18.3,29.24,North,0,0.0,0.0,63,0.00,,,0.00,WUHU216HW,2013-02-28 10:14:00,
2013-02-28 01:19:00,29.3,17.9,29.24,North,0,0.0,0.0,62,0.00,,,0.00,WUHU216HW,2013-02-28 10:19:00,
2013-02-28 01:24:00,29.3,17.9,29.23,North,0,0.0,0.0,62,0.00,,,0.00,WUHU216HW,2013-02-28 10:24:00,
2013-02-28 01:29:00,29.5,18.1,29.23,North,0,0.0,0.0,62,0.00,,,0.00,WUHU216HW,2013-02-28 10:29:00,
2013-02-28 01:34:00,29.5,18.1,29.23,North,0,0.0,0.0,62,0.00,,,0.00,WUHU216HW,2013-02-28 10:34:00,
2013-02-28 01:39:00,29.7,18.3,29.23,North,0,0.0,0.0,62,0.00,,,0.00,WUHU216HW,2013-02-28 10:39:00,
2013-02-28 01:44:00,29.7,18.3,29.23,North,0,0.0,0.0,62,0.00,,,0.00,WUHU216HW,2013-02-28 10:44:00,
2013-02-28 01:49:00,29.9,18.7,29.23,North,0,0.0,0.0,63,0.00,,,0.00,WUHU216HW,2013-02-28 10:49:00,
2013-02-28 01:54:00,29.9,18.7,29.23,North,0,0.0,0.0,63,0.00,,,0.00,WUHU216HW,2013-02-28 10:54:00,
2013-02-28 01:59:00,29.9,18.4,29.23,North,0,0.0,0.0,62,0.00,,,0.00,WUHU216HW,2013-02-28 10:59:00,
2013-02-28 02:04:00,29.9,18.4,29.23,North,0,0.0,0.0,62,0.00,,,0.00,WUHU216HW,2013-02-28 11:04:00,
2013-02-28 02:09:00,29.9,18.4,29.23,North,0,0.0,0.0,62,0.00,,,0.00,WUHU216HW,2013-02-28 11:09:00,
2013-02-28 02:14:00,29.9,18.4,29.23,North,0,0.0,0.0,62,0.00,,,0.00,WUHU216HW,2013-02-28 11:14:00,
2013-02-28 02:19:00,30.1,18.5,29.23,North,0,0.0,0.0,62,0.00,,,0.00,WUHU216HW,2013-02-28 11:19:00,
2013-02-28 02:24:00,30.1,18.5,29.23,North,0,0.0,0.0,62,0.00,,,0.00,WUHU216HW,2013-02-28 11:24:00,
2013-02-28 02:29:00,30.1,18.5,29.23,North,0,0.0,0.0,62,0.00,,,0.00,WUHU216HW,2013-02-28 11:29:00,
2013-02-28 02:34:00,30.1,18.5,29.23,North,0,0.0,0.0,62,0.00,,,0.00,WUHU216HW,2013-02-28 11:34:00,
2013-02-28 02:39:00,29.9,18.4,29.23,North,0,0.0,0.0,62,0.00,,,0.00,WUHU216HW,2013-02-28 11:39:00,
2013-02-28 02:44:00,29.9,18.7,29.23,North,0,0.0,0.0,63,0.00,,,0.00,WUHU216HW,2013-02-28 11:44:00,
2013-02-28 02:49:00,29.9,19.1,29.23,North,0,0.0,0.0,64,0.00,,,0.00,WUHU216HW,2013-02-28 11:49:00,
2013-02-28 02:54:00,30.1,19.3,29.23,North,0,0.0,0.0,64,0.00,,,0.00,WUHU216HW,2013-02-28 11:54:00,
2013-02-28 02:59:00,30.2,19.8,29.23,North,0,0.0,0.0,65,0.00,,,0.00,WUHU216HW,2013-02-28 11:59:00,
2013-02-28 03:04:00,30.2,19.8,29.23,North,0,0.0,0.0,65,0.00,,,0.00,WUHU216HW,2013-02-28 12:04:00,
2013-02-28 03:09:00,30.2,19.8,29.23,North,0,0.0,0.0,65,0.00,,,0.00,WUHU216HW,2013-02-28 12:09:00,
2013-02-28 03:14:00,30.2,19.8,29.23,North,0,0.0,0.0,65,0.00,,,0.00,WUHU216HW,2013-02-28 12:14:00,
2013-02-28 03:19:00,30.2,19.4,29.23,North,0,0.0,0.0,64,0.00,,,0.00,WUHU216HW,2013-02-28 12:19:00,
2013-02-28 03:24:00,30.1,18.5,29.23,North,0,0.0,0.0,62,0.00,,,0.00,WUHU216HW,2013-02-28 12:24:00,
2013-02-28 03:29:00,29.9,18.4,29.23,North,0,0.0,0.0,62,0.00,,,0.00,WUHU216HW,2013-02-28 12:29:00,
2013-02-28 03:34:00,30.1,18.2,29.23,North,0,0.0,0.0,61,0.00,,,0.00,WUHU216HW,2013-02-28 12:34:00,
2013-02-28 03:40:00,30.1,17.8,29.23,North,0,0.0,0.0,60,0.00,,,0.00,WUHU216HW,2013-02-28 12:40:00,
2013-02-28 03:45:00,30.2,18.0,29.23,North,0,0.0,0.0,60,0.00,,,0.00,WUHU216HW,2013-02-28 12:45:00,
2013-02-28 03:50:00,30.1,17.8,29.23,North,0,0.0,0.0,60,0.00,,,0.00,WUHU216HW,2013-02-28 12:50:00,
2013-02-28 03:55:00,29.9,17.6,29.23,North,0,0.0,0.0,60,0.00,,,0.00,WUHU216HW,2013-02-28 12:55:00,
2013-02-28 04:00:00,29.9,17.6,29.23,North,0,0.0,0.0,60,0.00,,,0.00,WUHU216HW,2013-02-28 13:00:00,
2013-02-28 04:05:00,29.9,18.0,29.23,North,0,0.0,0.0,61,0.00,,,0.00,WUHU216HW,2013-02-28 13:05:00,
2013-02-28 04:10:00,30.1,18.2,29.23,North,0,0.0,0.0,61,0.00,,,0.00,WUHU216HW,2013-02-28 13:10:00,
2013-02-28 04:15:00,30.1,18.5,29.23,North,0,0.0,0.0,62,0.00,,,0.00,WUHU216HW,2013-02-28 13:15:00,
2013-02-28 04:20:00,30.1,18.9,29.23,North,0,0.0,0.0,63,0.00,,,0.00,WUHU216HW,2013-02-28 13:20:00,
2013-02-28 04:25:00,30.2,19.4,29.23,North,0,0.0,0.0,64,0.00,,,0.00,WUHU216HW,2013-02-28 13:25:00,
2013-02-28 04:30:00,30.2,19.8,29.23,North,0,0.0,0.0,65,0.00,,,0.00,WUHU216HW,2013-02-28 13:30:00,
2013-02-28 04:35:00,30.2,19.8,29.23,North,0,0.0,0.0,65,0.00,,,0.00,WUHU216HW,2013-02-28 13:35:00,
2013-02-28 04:40:00,30.4,20.0,29.23,North,0,0.0,0.0,65,0.00,,,0.00,WUHU216HW,2013-02-28 13:40:00,
2013-02-28 04:45:00,30.4,20.3,29.24,NNE,23,5.8,5.8,66,0.00,,,0.00,WUHU216HW,2013-02-28 13:45:00,
2013-02-28 04:50:00,30.6,20.5,29.24,East,90,2.0,5.8,66,0.00,,,0.00,WUHU216HW,2013-02-28 13:50:00,
2013-02-28 04:55:00,30.6,20.5,29.24,NNE,23,3.4,5.8,66,0.00,,,0.00,WUHU216HW,2013-02-28 13:55:00,
2013-02-28 05:00:00,30.6,20.2,29.24,ENE,68,3.6,4.0,65,0.00,,,0.00,WUHU216HW,2013-02-28 14:00:00,
2013-02-28 05:05:00,30.6,20.5,29.24,North,0,2.9,4.3,66,0.00,,,0.00,WUHU216HW,2013-02-28 14:05:00,
2013-02-28 05:10:00,30.8,21.1,29.24,North,0,2.5,4.3,67,0.00,,,0.00,WUHU216HW,2013-02-28 14:10:00,
2013-02-28 05:15:00,31.0,21.2,29.25,NNE,23,2.9,3.4,67,0.00,,,0.00,WUHU216HW,2013-02-28 14:15:00,
2013-02-28 05:20:00,31.1,22.5,29.24,East,90,4.3,4.3,70,0.00,,,0.00,WUHU216HW,2013-02-28 14:20:00,
2013-02-28 05:25:00,31.3,23.3,29.24,North,0,0.0,4.3,72,0.00,,,0.00,WUHU216HW,2013-02-28 14:25:00,
2013-02-28 05:30:00,31.7,24.7,29.25,NNE,23,3.1,4.3,75,0.00,,,0.00,WUHU216HW,2013-02-28 14:30:00,
2013-02-28 05:35:00,31.9,25.5,29.25,North,0,4.3,4.3,77,0.00,,,0.00,WUHU216HW,2013-02-28 14:35:00,
2013-02-28 05:40:00,32.0,25.7,29.25,NNE,23,4.0,4.3,77,0.00,,,0.00,WUHU216HW,2013-02-28 14:40:00,
2013-02-28 05:45:00,32.2,26.2,29.25,NNE,23,2.9,4.0,78,0.00,,,0.00,WUHU216HW,2013-02-28 14:45:00,
2013-02-28 05:50:00,32.4,26.0,29.25,NNE,23,3.6,3.6,77,0.00,,,0.00,WUHU216HW,2013-02-28 14:50:00,
2013-02-28 05:55:00,32.4,25.7,29.25,NE,45,1.1,3.6,76,0.00,,,0.00,WUHU216HW,2013-02-28 14:55:00,
2013-02-28 06:00:00,32.2,25.5,29.26,ENE,68,3.4,3.6,76,0.00,,,0.00,WUHU216HW,2013-02-28 15:00:00,
2013-02-28 06:05:00,32.4,26.0,29.26,SSW,203,0.2,3.4,77,0.00,,,0.00,WUHU216HW,2013-02-28 15:05:00,
2013-02-28 06:10:00,32.4,26.6,29.27,SE,135,1.8,3.4,79,0.00,,,0.00,WUHU216HW,2013-02-28 15:10:00,
2013-02-28 06:15:00,32.0,25.0,29.27,South,180,0.4,3.4,75,0.00,,,0.00,WUHU216HW,2013-02-28 15:15:00,
2013-02-28 06:20:00,31.9,24.5,29.27,SSE,158,0.0,2.2,74,0.00,,,0.00,WUHU216HW,2013-02-28 15:20:00,
2013-02-28 06:25:00,31.5,23.9,29.28,SSE,158,0.0,0.9,73,0.00,,,0.00,WUHU216HW,2013-02-28 15:25:00,
2013-02-28 06:30:00,31.1,23.1,29.28,SE,135,0.0,1.8,72,0.00,,,0.00,WUHU216HW,2013-02-28 15:30:00,
2013-02-28 06:35:00,31.0,23.0,29.28,ESE,113,0.0,1.8,72,0.00,,,0.00,WUHU216HW,2013-02-28 15:35:00,
2013-02-28 06:40:00,30.6,22.6,29.28,SE,135,2.0,2.0,72,0.00,,,0.00,WUHU216HW,2013-02-28 15:40:00,
2013-02-28 06:45:00,30.6,22.6,29.29,ENE,68,0.0,2.0,72,0.00,,,0.00,WUHU216HW,2013-02-28 15:45:00,
2013-02-28 06:50:00,30.2,22.2,29.29,ENE,68,0.0,1.1,72,0.00,,,0.00,WUHU216HW,2013-02-28 15:50:00,
2013-02-28 06:55:00,30.1,22.1,29.29,ESE,113,1.1,1.3,72,0.00,,,0.00,WUHU216HW,2013-02-28 15:55:00,
2013-02-28 07:00:00,29.9,22.0,29.29,ENE,68,0.4,1.8,72,0.00,,,0.00,WUHU216HW,2013-02-28 16:00:00,
2013-02-28 07:05:00,29.7,21.8,29.30,NNE,23,2.5,2.5,72,0.00,,,0.00,WUHU216HW,2013-02-28 16:05:00,
2013-02-28 07:10:00,29.7,21.8,29.30,ESE,113,0.7,2.5,72,0.00,,,0.00,WUHU216HW,2013-02-28 16:10:00,
2013-02-28 07:15:00,29.7,21.8,29.30,NE,45,1.1,1.8,72,0.00,,,0.00,WUHU216HW,2013-02-28 16:15:00,
2013-02-28 07:20:00,29.5,21.6,29.30,East,90,0.7,1.8,72,0.00,,,0.00,WUHU216HW,2013-02-28 16:20:00,
2013-02-28 07:25:00,29.7,21.8,29.31,ESE,113,0.7,1.8,72,0.00,,,0.00,WUHU216HW,2013-02-28 16:25:00,
2013-02-28 07:30:00,29.7,22.1,29.31,East,90,0.0,1.8,73,0.00,,,0.00,WUHU216HW,2013-02-28 16:30:00,
2013-02-28 07:35:00,29.7,22.1,29.31,ESE,113,0.4,0.4,73,0.00,,,0.00,WUHU216HW,2013-02-28 16:35:00,
2013-02-28 07:40:00,29.5,21.9,29.31,ENE,68,0.0,0.4,73,0.00,,,0.00,WUHU216HW,2013-02-28 16:40:00,
2013-02-28 07:45:00,29.5,22.2,29.31,ESE,113,0.0,0.4,74,0.00,,,0.00,WUHU216HW,2013-02-28 16:45:00,
2013-02-28 07:50:00,29.5,22.2,29.31,ESE,113,0.0,0.4,74,0.00,,,0.00,WUHU216HW,2013-02-28 16:50:00,
2013-02-28 07:55:00,29.3,22.4,29.31,ESE,113,0.0,0.7,75,0.00,,,0.00,WUHU216HW,2013-02-28 16:55:00,
2013-02-28 08:00:00,29.2,22.5,29.31,SE,135,0.0,0.7,76,0.00,,,0.00,WUHU216HW,2013-02-28 17:00:00,
2013-02-28 08:05:00,29.2,22.2,29.31,SSE,158,0.0,0.0,75,0.00,,,0.00,WUHU216HW,2013-02-28 17:05:00,
2013-02-28 08:10:00,29.2,22.5,29.31,SSE,158,0.0,0.0,76,0.00,,,0.00,WUHU216HW,2013-02-28 17:10:00,
2013-02-28 08:15:00,29.0,22.7,29.31,SSE,158,0.0,0.0,77,0.00,,,0.00,WUHU216HW,2013-02-28 17:15:00,
2013-02-28 08:20:00,29.0,23.0,29.31,SW,225,0.0,0.0,78,0.00,,,0.00,WUHU216HW,2013-02-28 17:20:00,
2013-02-28 08:25:00,29.0,23.0,29.31,ESE,113,0.9,0.9,78,0.00,,,0.00,WUHU216HW,2013-02-28 17:25:00,
2013-02-28 08:30:00,29.2,23.5,29.31,SE,135,1.6,1.6,79,0.00,,,0.00,WUHU216HW,2013-02-28 17:30:00,
2013-02-28 08:35:00,29.2,23.5,29.31,SSE,158,0.0,1.6,79,0.00,,,0.00,WUHU216HW,2013-02-28 17:35:00,
2013-02-28 08:40:00,29.3,23.7,29.31,ESE,113,0.2,1.1,79,0.00,,,0.00,WUHU216HW,2013-02-28 17:40:00,
2013-02-28 08:45:00,29.5,23.5,29.31,NE,45,0.4,2.2,78,0.00,,,0.00,WUHU216HW,2013-02-28 17:45:00,
2013-02-28 08:50:00,29.7,23.7,29.31,North,0,1.8,2.5,78,0.00,,,0.00,WUHU216HW,2013-02-28 17:50:00,
2013-02-28 08:55:00,29.9,23.5,29.31,NNW,338,0.4,2.5,77,0.00,,,0.00,WUHU216HW,2013-02-28 17:55:00,
2013-02-28 09:00:00,29.9,23.2,29.31,SSE,158,1.8,1.8,76,0.00,,,0.00,WUHU216HW,2013-02-28 18:00:00,
2013-02-28 09:05:00,30.1,23.4,29.31,SSW,203,0.4,1.8,76,0.00,,,0.00,WUHU216HW,2013-02-28 18:05:00,
2013-02-28 09:10:00,30.2,23.6,29.31,SE,135,0.7,1.1,76,0.00,,,0.00,WUHU216HW,2013-02-28 18:10:00,
2013-02-28 09:15:00,30.2,23.6,29.32,ENE,68,0.7,2.0,76,0.00,,,0.00,WUHU216HW,2013-02-28 18:15:00,
2013-02-28 09:20:00,30.4,23.8,29.32,East,90,0.9,2.0,76,0.00,,,0.00,WUHU216HW,2013-02-28 18:20:00,
2013-02-28 09:25:00,30.4,23.4,29.32,SSE,158,1.1,1.8,75,0.00,,,0.00,WUHU216HW,2013-02-28 18:25:00,
2013-02-28 09:30:00,30.6,23.0,29.32,SSE,158,3.1,3.1,73,0.00,,,0.00,WUHU216HW,2013-02-28 18:30:00,
2013-02-28 09:35:00,30.6,23.6,29.32,SW,225,0.0,3.1,75,0.00,,,0.00,WUHU216HW,2013-02-28 18:35:00,
2013-02-28 09:40:00,30.6,23.6,29.32,North,0,0.0,2.7,75,0.00,,,0.00,WUHU216HW,2013-02-28 18:40:00,
2013-02-28 09:45:00,30.8,23.4,29.32,SE,135,0.7,2.7,74,0.00,,,0.00,WUHU216HW,2013-02-28 18:45:00,
2013-02-28 09:50:00,31.0,23.6,29.32,SSW,203,0.4,1.6,74,0.00,,,0.00,WUHU216HW,2013-02-28 18:50:00,
2013-02-28 09:55:00,31.1,23.8,29.32,South,180,0.4,1.1,74,0.00,,,0.00,WUHU216HW,2013-02-28 18:55:00,
2013-02-28 10:00:00,31.3,23.9,29.32,SE,135,0.2,1.1,74,0.00,,,0.00,WUHU216HW,2013-02-28 19:00:00,
2013-02-28 10:05:00,31.3,23.9,29.32,SSW,203,1.3,2.0,74,0.00,,,0.00,WUHU216HW,2013-02-28 19:05:00,
2013-02-28 10:10:00,31.3,23.9,29.32,SSW,203,0.4,2.0,74,0.00,,,0.00,WUHU216HW,2013-02-28 19:10:00,
2013-02-28 10:15:00,31.5,23.9,29.32,SSW,203,0.0,0.9,73,0.00,,,0.00,WUHU216HW,2013-02-28 19:15:00,
2013-02-28 10:20:00,32.0,23.8,29.32,North,0,0.4,1.1,71,0.00,,,0.00,WUHU216HW,2013-02-28 19:20:00,
2013-02-28 10:25:00,32.6,23.9,29.32,NNE,23,1.6,2.0,70,0.00,,,0.00,WUHU216HW,2013-02-28 19:25:00,
2013-02-28 10:30:00,33.1,24.0,29.32,North,0,1.1,3.1,69,0.00,,,0.00,WUHU216HW,2013-02-28 19:30:00,
2013-02-28 10:35:00,33.7,24.1,29.32,ENE,68,1.1,3.1,68,0.00,,,0.00,WUHU216HW,2013-02-28 19:35:00,
2013-02-28 10:40:00,34.0,24.1,29.32,NE,45,1.8,2.5,67,0.00,,,0.00,WUHU216HW,2013-02-28 19:40:00,
2013-02-28 10:45:00,34.2,24.3,29.32,NNE,23,0.4,2.9,67,0.00,,,0.00,WUHU216HW,2013-02-28 19:45:00,
2013-02-28 10:50:00,34.4,24.1,29.32,NNE,23,3.1,3.1,66,0.00,,,0.00,WUHU216HW,2013-02-28 19:50:00,
2013-02-28 10:55:00,34.6,23.9,29.32,North,0,2.5,3.1,65,0.00,,,0.00,WUHU216HW,2013-02-28 19:55:00,
2013-02-28 11:00:00,34.7,23.4,29.32,NE,45,2.0,3.1,63,0.00,,,0.00,WUHU216HW,2013-02-28 20:00:00,
2013-02-28 11:05:00,34.9,23.9,29.32,ESE,113,0.4,2.2,64,0.00,,,0.00,WUHU216HW,2013-02-28 20:05:00,
2013-02-28 11:10:00,34.9,23.9,29.32,SW,225,1.3,1.8,64,0.00,,,0.00,WUHU216HW,2013-02-28 20:10:00,
2013-02-28 11:15:00,34.7,23.8,29.32,North,0,0.4,1.8,64,0.00,,,0.00,WUHU216HW,2013-02-28 20:15:00,
2013-02-28 11:20:00,35.1,23.4,29.31,NE,45,2.2,2.2,62,0.00,,,0.00,WUHU216HW,2013-02-28 20:20:00,
2013-02-28 11:25:00,35.5,23.8,29.31,ENE,68,2.2,2.2,62,0.00,,,0.00,WUHU216HW,2013-02-28 20:25:00,
2013-02-28 11:30:00,35.6,23.9,29.31,North,0,0.4,2.2,62,0.00,,,0.00,WUHU216HW,2013-02-28 20:30:00,
2013-02-28 11:36:00,35.8,23.4,29.31,ENE,68,4.0,4.0,60,0.00,,,0.00,WUHU216HW,2013-02-28 20:36:00,
2013-02-28 11:41:00,36.0,23.6,29.31,NNE,23,0.0,4.0,60,0.00,,,0.00,WUHU216HW,2013-02-28 20:41:00,
2013-02-28 11:46:00,36.2,23.3,29.31,NE,45,1.8,2.9,59,0.00,,,0.00,WUHU216HW,2013-02-28 20:46:00,
2013-02-28 11:51:00,36.4,23.9,29.32,WNW,293,0.0,2.9,60,0.00,,,0.00,WUHU216HW,2013-02-28 20:51:00,
2013-02-28 11:56:00,36.5,23.1,29.31,NNW,338,1.3,2.9,58,0.00,,,0.00,WUHU216HW,2013-02-28 20:56:00,
2013-02-28 12:01:00,36.7,23.3,29.31,NW,315,1.8,1.8,58,0.00,,,0.00,WUHU216HW,2013-02-28 21:01:00,
2013-02-28 12:06:00,36.9,23.5,29.31,North,0,0.0,1.8,58,0.00,,,0.00,WUHU216HW,2013-02-28 21:06:00,
2013-02-28 12:11:00,37.3,23.9,29.31,WNW,293,1.3,2.9,58,0.00,,,0.00,WUHU216HW,2013-02-28 21:11:00,
2013-02-28 12:16:00,37.6,24.1,29.31,East,90,0.9,2.9,58,0.00,,,0.00,WUHU216HW,2013-02-28 21:16:00,
2013-02-28 12:21:00,37.8,23.4,29.31,ENE,68,2.5,3.1,56,0.00,,,0.00,WUHU216HW,2013-02-28 21:21:00,
2013-02-28 12:26:00,38.2,23.8,29.31,NNE,23,1.1,4.7,56,0.00,,,0.00,WUHU216HW,2013-02-28 21:26:00,
2013-02-28 12:31:00,38.5,24.1,29.31,North,0,2.9,4.7,56,0.00,,,0.00,WUHU216HW,2013-02-28 21:31:00,
2013-02-28 12:36:00,38.7,24.2,29.30,WNW,293,2.5,2.9,56,0.00,,,0.00,WUHU216HW,2013-02-28 21:36:00,
2013-02-28 12:41:00,39.1,24.1,29.30,NNW,338,1.1,3.8,55,0.00,,,0.00,WUHU216HW,2013-02-28 21:41:00,
2013-02-28 12:46:00,39.2,23.9,29.30,North,0,2.0,4.9,54,0.00,,,0.00,WUHU216HW,2013-02-28 21:46:00,
2013-02-28 12:51:00,39.2,23.9,29.30,NE,45,1.1,4.9,54,0.00,,,0.00,WUHU216HW,2013-02-28 21:51:00,
2013-02-28 12:56:00,39.2,24.3,29.29,NE,45,2.7,3.6,55,0.00,,,0.00,WUHU216HW,2013-02-28 21:56:00,
2013-02-28 13:01:00,39.6,23.8,29.29,North,0,0.9,3.4,53,0.00,,,0.00,WUHU216HW,2013-02-28 22:01:00,
2013-02-28 13:06:00,39.6,23.8,29.29,North,0,2.7,3.4,53,0.00,,,0.00,WUHU216HW,2013-02-28 22:06:00,
2013-02-28 13:11:00,39.8,24.0,29.29,North,0,3.8,3.8,53,0.00,,,0.00,WUHU216HW,2013-02-28 22:11:00,
2013-02-28 13:16:00,39.8,24.0,29.29,North,0,0.4,3.8,53,0.00,,,0.00,WUHU216HW,2013-02-28 22:16:00,
2013-02-28 13:21:00,39.8,23.5,29.28,North,0,1.8,1.8,52,0.00,,,0.00,WUHU216HW,2013-02-28 22:21:00,
2013-02-28 13:26:00,39.8,24.0,29.28,North,0,1.8,1.8,53,0.00,,,0.00,WUHU216HW,2013-02-28 22:26:00,
2013-02-28 13:31:00,39.8,23.5,29.28,West,270,0.7,1.8,52,0.00,,,0.00,WUHU216HW,2013-02-28 22:31:00,
2013-02-28 13:36:00,39.8,22.6,29.28,NW,315,2.5,2.5,50,0.00,,,0.00,WUHU216HW,2013-02-28 22:36:00,
2013-02-28 13:41:00,39.8,23.0,29.28,NNW,338,1.1,2.5,51,0.00,,,0.00,WUHU216HW,2013-02-28 22:41:00,
2013-02-28 13:46:00,40.1,22.4,29.28,WSW,248,2.2,2.2,49,0.00,,,0.00,WUHU216HW,2013-02-28 22:46:00,
2013-02-28 13:51:00,40.1,22.4,29.27,WSW,248,2.5,2.5,49,0.00,,,0.00,WUHU216HW,2013-02-28 22:51:00,
2013-02-28 13:56:00,40.0,22.2,29.27,WNW,293,2.7,2.7,49,0.00,,,0.00,WUHU216HW,2013-02-28 22:56:00,
2013-02-28 14:01:00,39.8,22.2,29.27,WNW,293,0.2,2.7,49,0.00,,,0.00,WUHU216HW,2013-02-28 23:01:00,
2013-02-28 14:06:00,39.8,22.2,29.27,West,270,2.0,4.0,49,0.00,,,0.00,WUHU216HW,2013-02-28 23:06:00,
2013-02-28 14:11:00,39.2,23.1,29.27,WSW,248,1.3,4.0,52,0.00,,,0.00,WUHU216HW,2013-02-28 23:11:00,
2013-02-28 14:16:00,38.7,22.5,29.27,West,270,1.6,3.4,52,0.00,,,0.00,WUHU216HW,2013-02-28 23:16:00,
2013-02-28 14:21:00,38.5,22.8,29.26,WSW,248,2.2,3.4,53,0.00,,,0.00,WUHU216HW,2013-02-28 23:21:00,
2013-02-28 14:26:00,38.5,22.8,29.26,South,180,1.8,2.5,53,0.00,,,0.00,WUHU216HW,2013-02-28 23:26:00,
2013-02-28 14:31:00,38.5,22.3,29.26,SW,225,1.8,4.0,52,0.00,,,0.00,WUHU216HW,2013-02-28 23:31:00,
2013-02-28 14:36:00,38.5,22.8,29.26,SSW,203,0.4,4.0,53,0.00,,,0.00,WUHU216HW,2013-02-28 23:36:00,
2013-02-28 14:41:00,38.7,23.0,29.26,West,270,3.1,3.1,53,0.00,,,0.00,WUHU216HW,2013-02-28 23:41:00,
2013-02-28 14:46:00,38.5,22.3,29.25,West,270,2.5,3.1,52,0.00,,,0.00,WUHU216HW,2013-02-28 23:46:00,
2013-02-28 14:51:00,38.2,22.1,29.25,WSW,248,1.3,3.1,52,0.00,,,0.00,WUHU216HW,2013-02-28 23:51:00,
2013-02-28 14:56:00,38.2,22.5,29.25,SW,225,2.0,2.5,53,0.00,,,0.00,WUHU216HW,2013-02-28 23:56:00,
2013-02-28 15:01:00,38.2,22.1,29.25,West,270,0.7,2.5,52,0.00,,,0.00,WUHU216HW,2013-03-01 00:01:00,
2013-02-28 15:06:00,38.5,22.3,29.25,WSW,248,2.5,2.5,52,0.00,,,0.00,WUHU216HW,2013-03-01 00:06:00,
2013-02-28 15:11:00,38.5,22.0,29.25,West,270,1.8,3.6,51,0.00,,,0.00,WUHU216HW,2013-03-01 00:11:00,
2013-02-28 15:16:00,38.9,22.2,29.24,SW,225,2.2,3.6,51,0.00,,,0.00,WUHU216HW,2013-03-01 00:16:00,
2013-02-28 15:21:00,38.7,21.7,29.24,West,270,2.5,2.5,50,0.00,,,0.00,WUHU216HW,2013-03-01 00:21:00,
2013-02-28 15:26:00,38.9,21.8,29.24,NE,45,0.0,2.5,50,0.00,,,0.00,WUHU216HW,2013-03-01 00:26:00,
2013-02-28 15:31:00,39.2,22.6,29.24,North,0,1.1,2.2,51,0.00,,,0.00,WUHU216HW,2013-03-01 00:31:00,
2013-02-28 15:36:00,39.8,23.0,29.24,WSW,248,0.2,2.2,51,0.00,,,0.00,WUHU216HW,2013-03-01 00:36:00,
2013-02-28 15:41:00,40.0,23.2,29.24,NNE,23,0.7,3.8,51,0.00,,,0.00,WUHU216HW,2013-03-01 00:41:00,
2013-02-28 15:46:00,40.1,23.4,29.24,NE,45,1.1,3.8,51,0.00,,,0.00,WUHU216HW,2013-03-01 00:46:00,
2013-02-28 15:51:00,40.1,23.4,29.25,NW,315,4.0,4.0,51,0.00,,,0.00,WUHU216HW,2013-03-01 00:51:00,
2013-02-28 15:56:00,40.1,23.4,29.25,North,0,2.2,4.0,51,0.00,,,0.00,WUHU216HW,2013-03-01 00:56:00,
2013-02-28 16:01:00,40.1,23.4,29.25,West,270,0.0,2.7,51,0.00,,,0.00,WUHU216HW,2013-03-01 01:01:00,
2013-02-28 16:06:00,40.0,22.8,29.24,North,0,1.1,2.5,50,0.00,,,0.00,WUHU216HW,2013-03-01 01:06:00,
2013-02-28 16:11:00,40.0,22.8,29.24,NW,315,0.9,3.4,50,0.00,,,0.00,WUHU216HW,2013-03-01 01:11:00,
2013-02-28 16:16:00,39.8,22.6,29.24,North,0,2.0,3.4,50,0.00,,,0.00,WUHU216HW,2013-03-01 01:16:00,
2013-02-28 16:21:00,39.6,22.9,29.24,North,0,1.1,2.7,51,0.00,,,0.00,WUHU216HW,2013-03-01 01:21:00,
2013-02-28 16:26:00,39.4,22.8,29.24,North,0,0.0,2.2,51,0.00,,,0.00,WUHU216HW,2013-03-01 01:26:00,
2013-02-28 16:31:00,39.4,22.8,29.24,North,0,1.1,1.6,51,0.00,,,0.00,WUHU216HW,2013-03-01 01:31:00,
2013-02-28 16:36:00,39.2,22.6,29.24,NNW,338,0.7,4.0,51,0.00,,,0.00,WUHU216HW,2013-03-01 01:36:00,
2013-02-28 16:41:00,39.2,22.6,29.24,NNW,338,0.2,4.0,51,0.00,,,0.00,WUHU216HW,2013-03-01 01:41:00,
2013-02-28 16:46:00,38.9,22.2,29.24,NW,315,1.6,2.5,51,0.00,,,0.00,WUHU216HW,2013-03-01 01:46:00,
2013-02-28 16:51:00,38.9,22.2,29.24,WSW,248,0.7,2.5,51,0.00,,,0.00,WUHU216HW,2013-03-01 01:51:00,
2013-02-28 16:56:00,38.5,21.5,29.24,NNW,338,0.9,1.8,50,0.00,,,0.00,WUHU216HW,2013-03-01 01:56:00,
2013-02-28 17:01:00,38.3,21.3,29.23,WSW,248,1.1,4.5,50,0.00,,,0.00,WUHU216HW,2013-03-01 02:01:00,
2013-02-28 17:06:00,38.0,21.0,29.23,North,0,3.4,4.5,50,0.00,,,0.00,WUHU216HW,2013-03-01 02:06:00,
2013-02-28 17:11:00,37.8,20.4,29.23,NNW,338,4.3,4.3,49,0.00,,,0.00,WUHU216HW,2013-03-01 02:11:00,
2013-02-28 17:16:00,37.4,20.5,29.23,West,270,4.0,5.4,50,0.00,,,0.00,WUHU216HW,2013-03-01 02:16:00,
2013-02-28 17:21:00,37.1,20.2,29.23,West,270,1.8,5.4,50,0.00,,,0.00,WUHU216HW,2013-03-01 02:21:00,
2013-02-28 17:26:00,36.7,19.9,29.23,WSW,248,4.7,4.7,50,0.00,,,0.00,WUHU216HW,2013-03-01 02:26:00,
2013-02-28 17:31:00,36.7,19.9,29.23,NNW,338,1.1,4.7,50,0.00,,,0.00,WUHU216HW,2013-03-01 02:31:00,
2013-02-28 17:36:00,36.7,20.4,29.23,WNW,293,1.1,2.5,51,0.00,,,0.00,WUHU216HW,2013-03-01 02:36:00,
2013-02-28 17:41:00,36.5,20.6,29.23,NW,315,0.7,2.5,52,0.00,,,0.00,WUHU216HW,2013-03-01 02:41:00,
2013-02-28 17:46:00,36.4,20.9,29.24,NNE,23,0.0,1.3,53,0.00,,,0.00,WUHU216HW,2013-03-01 02:46:00,
2013-02-28 17:51:00,36.2,20.7,29.24,North,0,0.0,0.7,53,0.00,,,0.00,WUHU216HW,2013-03-01 02:51:00,
2013-02-28 17:56:00,36.0,21.0,29.24,North,0,0.0,0.7,54,0.00,,,0.00,WUHU216HW,2013-03-01 02:56:00,
2013-02-28 18:01:00,35.8,20.8,29.24,North,0,0.0,0.0,54,0.00,,,0.00,WUHU216HW,2013-03-01 03:01:00,
2013-02-28 18:06:00,35.5,20.4,29.25,WNW,293,0.0,0.0,54,0.00,,,0.00,WUHU216HW,2013-03-01 03:06:00,
2013-02-28 18:11:00,35.1,20.1,29.24,WNW,293,0.0,0.0,54,0.00,,,0.00,WUHU216HW,2013-03-01 03:11:00,
2013-02-28 18:16:00,35.1,20.5,29.25,WSW,248,0.0,0.0,55,0.00,,,0.00,WUHU216HW,2013-03-01 03:16:00,
2013-02-28 18:21:00,34.9,20.3,29.25,East,90,0.7,0.9,55,0.00,,,0.00,WUHU216HW,2013-03-01 03:21:00,
2013-02-28 18:26:00,34.7,20.6,29.25,East,90,0.0,0.9,56,0.00,,,0.00,WUHU216HW,2013-03-01 03:26:00,
2013-02-28 18:31:00,34.4,20.3,29.25,North,0,0.0,0.4,56,0.00,,,0.00,WUHU216HW,2013-03-01 03:31:00,
2013-02-28 18:36:00,34.0,19.9,29.25,North,0,0.0,0.0,56,0.00,,,0.00,WUHU216HW,2013-03-01 03:36:00,
2013-02-28 18:41:00,33.7,19.5,29.25,North,0,0.0,0.0,56,0.00,,,0.00,WUHU216HW,2013-03-01 03:41:00,
2013-02-28 18:46:00,33.5,19.8,29.25,NW,315,0.4,0.7,57,0.00,,,0.00,WUHU216HW,2013-03-01 03:46:00,
2013-02-28 18:51:00,32.9,19.4,29.25,NW,315,0.9,1.1,57,0.00,,,0.00,WUHU216HW,2013-03-01 03:51:00,
2013-02-28 18:56:00,32.8,19.2,29.25,WNW,293,0.2,1.1,57,0.00,,,0.00,WUHU216HW,2013-03-01 03:56:00,
2013-02-28 19:01:00,32.6,19.5,29.25,SE,135,0.2,1.6,58,0.00,,,0.00,WUHU216HW,2013-03-01 04:01:00,
2013-02-28 19:06:00,32.2,19.1,29.25,SE,135,0.0,1.6,58,0.00,,,0.00,WUHU216HW,2013-03-01 04:06:00,
2013-02-28 19:11:00,32.0,19.4,29.25,WNW,293,0.9,1.3,59,0.00,,,0.00,WUHU216HW,2013-03-01 04:11:00,
2013-02-28 19:16:00,31.7,19.4,29.25,West,270,0.9,1.8,60,0.00,,,0.00,WUHU216HW,2013-03-01 04:16:00,
2013-02-28 19:21:00,31.7,19.8,29.25,West,270,0.0,1.8,61,0.00,,,0.00,WUHU216HW,2013-03-01 04:21:00,
2013-02-28 19:26:00,31.5,19.3,29.25,NNE,23,0.0,0.9,60,0.00,,,0.00,WUHU216HW,2013-03-01 04:26:00,
2013-02-28 19:31:00,31.3,19.1,29.26,NNW,338,0.0,1.1,60,0.00,,,0.00,WUHU216HW,2013-03-01 04:31:00,
2013-02-28 19:36:00,31.0,19.1,29.25,NNW,338,0.0,1.1,61,0.00,,,0.00,WUHU216HW,2013-03-01 04:36:00,
2013-02-28 19:41:00,30.8,18.9,29.25,NNE,23,0.7,0.7,61,0.00,,,0.00,WUHU216HW,2013-03-01 04:41:00,
2013-02-28 19:46:00,30.6,18.7,29.25,North,0,0.0,0.7,61,0.00,,,0.00,WUHU216HW,2013-03-01 04:46:00,
2013-02-28 19:51:00,30.6,19.1,29.26,North,0,0.0,0.0,62,0.00,,,0.00,WUHU216HW,2013-03-01 04:51:00,
2013-02-28 19:57:00,30.4,18.9,29.25,North,0,0.0,0.0,62,0.00,,,0.00,WUHU216HW,2013-03-01 04:57:00,
2013-02-28 20:02:00,30.4,18.9,29.25,North,0,0.0,0.0,62,0.00,,,0.00,WUHU216HW,2013-03-01 05:02:00,
2013-02-28 20:07:00,30.2,18.7,29.26,NW,315,0.0,0.0,62,0.00,,,0.00,WUHU216HW,2013-03-01 05:07:00,
2013-02-28 20:12:00,29.9,18.4,29.26,NW,315,0.0,0.0,62,0.00,,,0.00,WUHU216HW,2013-03-01 05:12:00,
2013-02-28 20:17:00,29.7,18.3,29.26,NW,315,0.0,0.0,62,0.00,,,0.00,WUHU216HW,2013-03-01 05:17:00,
2013-02-28 20:22:00,29.5,18.5,29.26,SSE,158,0.0,0.0,63,0.00,,,0.00,WUHU216HW,2013-03-01 05:22:00,
2013-02-28 20:27:00,29.3,18.3,29.26,ESE,113,0.9,1.1,63,0.00,,,0.00,WUHU216HW,2013-03-01 05:27:00,
2013-02-28 20:32:00,29.2,17.7,29.26,East,90,0.0,1.1,62,0.00,,,0.00,WUHU216HW,2013-03-01 05:32:00,
2013-02-28 20:37:00,29.0,17.6,29.27,North,0,0.0,0.7,62,0.00,,,0.00,WUHU216HW,2013-03-01 05:37:00,
2013-02-28 20:42:00,28.6,17.7,29.27,North,0,0.0,0.0,63,0.00,,,0.00,WUHU216HW,2013-03-01 05:42:00,
2013-02-28 20:47:00,28.4,17.5,29.27,East,90,0.4,0.4,63,0.00,,,0.00,WUHU216HW,2013-03-01 05:47:00,
2013-02-28 20:52:00,28.3,17.6,29.27,East,90,0.2,0.4,64,0.00,,,0.00,WUHU216HW,2013-03-01 05:52:00,
2013-02-28 20:57:00,28.1,17.5,29.27,East,90,0.0,0.4,64,0.00,,,0.00,WUHU216HW,2013-03-01 05:57:00,
2013-02-28 21:02:00,28.1,17.8,29.28,East,90,0.4,0.9,65,0.00,,,0.00,WUHU216HW,2013-03-01 06:02:00,
2013-02-28 21:07:00,27.9,17.6,29.28,ENE,68,0.0,0.9,65,0.00,,,0.00,WUHU216HW,2013-03-01 06:07:00,
2013-02-28 21:12:00,27.9,17.6,29.28,ESE,113,0.0,1.1,65,0.00,,,0.00,WUHU216HW,2013-03-01 06:12:00,
2013-02-28 21:17:00,27.7,17.5,29.29,ESE,113,1.1,1.3,65,0.00,,,0.00,WUHU216HW,2013-03-01 06:17:00,
2013-02-28 21:22:00,27.7,17.8,29.29,East,90,1.1,1.3,66,0.00,,,0.00,WUHU216HW,2013-03-01 06:22:00,
2013-02-28 21:27:00,27.5,17.6,29.29,ESE,113,0.9,1.1,66,0.00,,,0.00,WUHU216HW,2013-03-01 06:27:00,
2013-02-28 21:32:00,27.5,17.6,29.29,East,90,0.7,0.9,66,0.00,,,0.00,WUHU216HW,2013-03-01 06:32:00,
2013-02-28 21:37:00,27.5,17.6,29.29,East,90,0.0,0.7,66,0.00,,,0.00,WUHU216HW,2013-03-01 06:37:00,
2013-02-28 21:42:00,27.4,17.8,29.29,East,90,0.4,1.1,67,0.00,,,0.00,WUHU216HW,2013-03-01 06:42:00,
2013-02-28 21:47:00,27.4,17.8,29.30,East,90,1.1,1.1,67,0.00,,,0.00,WUHU216HW,2013-03-01 06:47:00,
2013-02-28 21:52:00,27.4,18.2,29.30,ENE,68,1.1,1.6,68,0.00,,,0.00,WUHU216HW,2013-03-01 06:52:00,
2013-02-28 21:57:00,27.4,18.2,29.30,East,90,0.0,1.6,68,0.00,,,0.00,WUHU216HW,2013-03-01 06:57:00,
2013-02-28 22:02:00,27.4,18.5,29.30,NNE,23,1.6,1.6,69,0.00,,,0.00,WUHU216HW,2013-03-01 07:02:00,
2013-02-28 22:07:00,27.4,18.5,29.30,NNE,23,0.4,1.6,69,0.00,,,0.00,WUHU216HW,2013-03-01 07:07:00,
2013-02-28 22:12:00,27.4,18.5,29.30,NNE,23,0.2,1.6,69,0.00,,,0.00,WUHU216HW,2013-03-01 07:12:00,
2013-02-28 22:17:00,27.4,18.5,29.31,North,0,0.0,0.2,69,0.00,,,0.00,WUHU216HW,2013-03-01 07:17:00,
2013-02-28 22:22:00,27.2,18.4,29.30,North,0,0.0,0.0,69,0.00,,,0.00,WUHU216HW,2013-03-01 07:22:00,
2013-02-28 22:27:00,27.2,18.4,29.30,North,0,0.0,0.0,69,0.00,,,0.00,WUHU216HW,2013-03-01 07:27:00,
2013-02-28 22:32:00,27.2,18.4,29.31,North,0,0.0,0.0,69,0.00,,,0.00,WUHU216HW,2013-03-01 07:32:00,
2013-02-28 22:37:00,27.0,18.2,29.31,North,0,0.0,0.0,69,0.00,,,0.00,WUHU216HW,2013-03-01 07:37:00,
2013-02-28 22:42:00,27.0,18.2,29.31,North,0,0.0,0.0,69,0.00,,,0.00,WUHU216HW,2013-03-01 07:42:00,
2013-02-28 22:47:00,26.8,18.4,29.31,North,0,0.0,0.0,70,0.00,,,0.00,WUHU216HW,2013-03-01 07:47:00,
2013-02-28 22:52:00,26.6,18.2,29.31,North,0,0.0,0.0,70,0.00,,,0.00,WUHU216HW,2013-03-01 07:52:00,
2013-02-28 22:57:00,26.6,18.2,29.31,North,0,0.0,0.0,70,0.00,,,0.00,WUHU216HW,2013-03-01 07:57:00,
2013-02-28 23:02:00,26.5,18.0,29.31,North,0,0.0,0.0,70,0.00,,,0.00,WUHU216HW,2013-03-01 08:02:00,
2013-02-28 23:07:00,26.6,18.2,29.31,North,0,0.0,0.0,70,0.00,,,0.00,WUHU216HW,2013-03-01 08:07:00,
2013-02-28 23:12:00,26.5,18.0,29.32,North,0,0.0,0.0,70,0.00,,,0.00,WUHU216HW,2013-03-01 08:12:00,
2013-02-28 23:17:00,26.5,18.0,29.32,North,0,0.0,0.0,70,0.00,,,0.00,WUHU216HW,2013-03-01 08:17:00,
2013-02-28 23:22:00,26.6,18.2,29.32,North,0,0.0,0.0,70,0.00,,,0.00,WUHU216HW,2013-03-01 08:22:00,
2013-02-28 23:27:00,26.6,18.2,29.33,North,0,0.0,0.0,70,0.00,,,0.00,WUHU216HW,2013-03-01 08:27:00,
2013-02-28 23:32:00,26.6,18.2,29.33,NW,315,0.0,0.0,70,0.00,,,0.00,WUHU216HW,2013-03-01 08:32:00,
2013-02-28 23:37:00,26.6,18.2,29.33,NW,315,0.0,0.0,70,0.00,,,0.00,WUHU216HW,2013-03-01 08:37:00,
2013-02-28 23:42:00,26.6,18.2,29.33,SSE,158,0.4,0.4,70,0.00,,,0.00,WUHU216HW,2013-03-01 08:42:00,
2013-02-28 23:47:00,26.6,18.5,29.32,North,0,0.0,0.4,71,0.00,,,0.00,WUHU216HW,2013-03-01 08:47:00,
2013-02-28 23:52:00,26.6,18.5,29.32,North,0,0.0,0.4,71,0.00,,,0.00,WUHU216HW,2013-03-01 08:52:00,
2013-02-28 23:57:00,26.8,18.6,29.33,North,0,0.0,0.0,71,0.00,,,0.00,WUHU216HW,2013-03-01 08:57:00,